createdAt,value
2017-11-17T00:02:14.448Z,21.13
2017-11-17T00:04:42.572Z,20.60
2017-11-17T00:07:11.491Z,19.77
2017-11-17T00:09:40.398Z,22.13
2017-11-17T00:12:08.530Z,19.70
2017-11-17T00:14:37.431Z,21.43
2017-11-17T00:17:06.335Z,19.90
2017-11-17T00:19:34.458Z,19.70
2017-11-17T00:22:02.613Z,18.07
2017-11-17T00:24:30.742Z,20.67
2017-11-17T00:26:59.671Z,19.00
2017-11-17T00:29:27.789Z,18.67
2017-11-17T00:31:55.921Z,18.80
2017-11-17T00:34:24.033Z,20.07
2017-11-17T00:36:52.181Z,20.20
2017-11-17T00:39:20.299Z,20.97
2017-11-17T00:41:48.884Z,18.20
2017-11-17T00:44:17.756Z,20.00
2017-11-17T00:46:45.917Z,20.80
2017-11-17T00:49:14.042Z,21.63
2017-11-17T00:51:42.200Z,20.70
2017-11-17T00:54:11.087Z,18.80
2017-11-17T00:56:39.987Z,17.70
2017-11-17T00:59:08.900Z,17.70
2017-11-17T01:01:37.034Z,17.27
2017-11-17T01:04:05.972Z,16.17
2017-11-17T01:06:34.090Z,17.80
2017-11-17T01:09:02.218Z,18.80
2017-11-17T01:11:30.329Z,19.50
2017-11-17T01:13:58.490Z,18.37
2017-11-17T01:16:26.618Z,15.97
2017-11-17T01:18:54.754Z,19.87
2017-11-17T01:21:22.869Z,17.00
2017-11-17T01:23:51.013Z,19.13
2017-11-17T01:26:19.903Z,17.70
2017-11-17T01:28:48.797Z,16.63
2017-11-17T01:31:17.686Z,16.90
2017-11-17T01:33:46.593Z,17.70
2017-11-17T01:36:14.732Z,18.93
2017-11-17T01:38:42.877Z,17.90
2017-11-17T01:41:11.003Z,20.20
2017-11-17T01:43:39.155Z,16.73
2017-11-17T01:46:07.290Z,17.57
2017-11-17T01:48:35.435Z,17.60
2017-11-17T01:51:03.558Z,16.50
2017-11-17T01:53:31.694Z,19.10
2017-11-17T01:55:59.818Z,19.00
2017-11-17T01:58:27.949Z,18.20
2017-11-17T02:00:56.061Z,19.40
2017-11-17T02:03:24.197Z,20.50
2017-11-17T02:05:52.308Z,19.70
2017-11-17T02:08:20.436Z,20.57
2017-11-17T02:10:48.560Z,20.20
2017-11-17T02:13:16.701Z,18.90
2017-11-17T02:15:44.820Z,19.07
2017-11-17T02:18:13.746Z,20.40
2017-11-17T02:20:41.872Z,18.37
2017-11-17T02:23:09.999Z,20.03
2017-11-17T02:25:38.134Z,19.20
2017-11-17T02:28:08.382Z,18.67
2017-11-17T02:30:36.509Z,19.50
2017-11-17T02:33:04.645Z,21.00
2017-11-17T02:35:32.787Z,20.87
2017-11-17T02:38:00.911Z,21.17
2017-11-17T02:40:29.063Z,19.83
2017-11-17T02:42:57.187Z,19.27
2017-11-17T02:45:26.086Z,20.53
2017-11-17T02:47:54.984Z,21.27
2017-11-17T02:50:23.131Z,19.13
2017-11-17T02:52:51.237Z,19.90
2017-11-17T02:55:19.378Z,18.60
2017-11-17T02:57:47.512Z,18.67
2017-11-17T03:00:15.670Z,19.10
2017-11-17T03:02:46.373Z,19.40
2017-11-17T03:05:15.278Z,19.73
2017-11-17T03:07:43.398Z,17.77
2017-11-17T03:10:11.566Z,18.93
2017-11-17T03:12:39.679Z,21.10
2017-11-17T03:15:08.584Z,18.83
2017-11-17T03:17:36.692Z,20.53
2017-11-17T03:20:04.834Z,19.30
2017-11-17T03:22:32.959Z,17.70
2017-11-17T03:25:01.081Z,18.50
2017-11-17T03:27:29.195Z,18.97
2017-11-17T03:29:57.326Z,20.43
2017-11-17T03:32:25.453Z,18.80
2017-11-17T03:34:54.186Z,18.00
2017-11-17T03:37:22.340Z,20.20
2017-11-17T03:39:51.265Z,18.13
2017-11-17T03:42:19.379Z,17.23
2017-11-17T03:44:47.529Z,18.87
2017-11-17T03:47:15.662Z,18.50
2017-11-17T03:49:44.545Z,16.70
2017-11-17T03:52:13.454Z,17.67
2017-11-17T03:54:41.562Z,18.07
2017-11-17T03:57:09.694Z,20.27
2017-11-17T03:59:37.815Z,17.30
2017-11-17T04:02:05.981Z,18.10
2017-11-17T04:04:34.095Z,18.00
2017-11-17T04:07:03.023Z,18.80
2017-11-17T04:09:31.173Z,20.93
2017-11-17T04:12:00.065Z,19.20
2017-11-17T04:14:28.169Z,18.23
2017-11-17T04:16:56.302Z,18.10
2017-11-17T04:19:24.409Z,18.57
2017-11-17T04:21:52.559Z,18.43
2017-11-17T04:24:20.682Z,18.67
2017-11-17T04:26:48.827Z,17.40
2017-11-17T04:29:16.951Z,18.63
2017-11-17T04:31:45.849Z,16.13
2017-11-17T04:34:13.955Z,17.37
2017-11-17T04:36:42.096Z,19.17
2017-11-17T04:39:10.214Z,17.23
2017-11-17T04:41:38.353Z,19.57
2017-11-17T04:44:06.470Z,17.03
2017-11-17T04:46:34.609Z,18.97
2017-11-17T04:49:02.726Z,17.27
2017-11-17T04:51:30.902Z,15.73
2017-11-17T04:53:59.054Z,18.43
2017-11-17T04:56:27.218Z,19.20
2017-11-17T04:58:55.325Z,19.03
2017-11-17T05:01:23.491Z,17.60
2017-11-17T05:03:51.597Z,17.30
2017-11-17T05:06:20.506Z,16.73
2017-11-17T05:08:48.618Z,18.00
2017-11-17T05:11:16.734Z,17.20
2017-11-17T05:13:45.648Z,16.50
2017-11-17T05:16:13.767Z,16.77
2017-11-17T05:18:41.897Z,16.37
2017-11-17T05:21:10.004Z,16.40
2017-11-17T05:23:38.141Z,16.97
2017-11-17T05:26:06.267Z,17.90
2017-11-17T05:28:34.445Z,19.80
2017-11-17T05:31:02.563Z,18.00
2017-11-17T05:33:30.792Z,17.80
2017-11-17T05:35:59.840Z,17.30
2017-11-17T05:38:27.999Z,16.43
2017-11-17T05:40:56.131Z,16.30
2017-11-17T05:43:24.288Z,15.40
2017-11-17T05:45:52.422Z,16.23
2017-11-17T05:48:20.578Z,15.10
2017-11-17T05:50:49.449Z,15.67
2017-11-17T05:53:17.586Z,16.23
2017-11-17T05:55:45.713Z,17.00
2017-11-17T05:58:14.627Z,15.93
2017-11-17T06:00:42.733Z,17.60
2017-11-17T06:03:10.870Z,18.30
2017-11-17T06:05:38.985Z,16.53
2017-11-17T06:08:07.215Z,16.53
2017-11-17T06:10:35.338Z,17.40
2017-11-17T06:13:03.515Z,16.80
2017-11-17T06:15:38.836Z,17.23
2017-11-17T06:18:07.925Z,16.50
2017-11-17T06:20:38.071Z,17.67
2017-11-17T06:23:07.713Z,18.93
2017-11-17T06:25:37.159Z,20.27
2017-11-17T06:28:07.648Z,16.57
2017-11-17T06:30:49.452Z,16.53
2017-11-17T06:33:20.932Z,17.23
2017-11-17T06:35:52.295Z,16.50
2017-11-17T06:38:21.343Z,17.43
2017-11-17T06:40:50.266Z,19.30
2017-11-17T06:43:19.171Z,17.80
2017-11-17T06:45:47.290Z,15.90
2017-11-17T06:48:15.445Z,15.80
2017-11-17T06:50:43.568Z,14.20
2017-11-17T06:53:12.498Z,16.07
2017-11-17T06:55:40.663Z,15.33
2017-11-17T06:58:08.768Z,15.23
2017-11-17T07:00:36.951Z,15.50
2017-11-17T07:03:05.860Z,16.30
2017-11-17T07:05:34.009Z,14.40
2017-11-17T07:08:13.917Z,14.17
2017-11-17T07:10:47.254Z,14.27
2017-11-17T07:13:19.146Z,14.87
2017-11-17T07:15:51.391Z,15.27
2017-11-17T07:18:22.307Z,15.37
2017-11-17T07:20:51.998Z,14.73
2017-11-17T07:23:20.120Z,15.70
2017-11-17T07:25:48.262Z,14.50
2017-11-17T07:28:16.385Z,15.77
2017-11-17T07:30:44.525Z,13.73
2017-11-17T07:33:13.114Z,16.10
2017-11-17T07:35:41.257Z,14.33
2017-11-17T07:38:09.381Z,14.10
2017-11-17T07:40:37.518Z,14.00
2017-11-17T07:43:05.641Z,14.23
2017-11-17T07:45:33.783Z,12.00
2017-11-17T07:48:01.899Z,13.23
2017-11-17T07:50:30.819Z,11.33
2017-11-17T07:52:58.949Z,12.10
2017-11-17T07:55:27.114Z,12.83
2017-11-17T07:57:55.243Z,11.17
2017-11-17T08:00:24.509Z,13.80
2017-11-17T08:02:53.415Z,14.00
2017-11-17T08:05:22.329Z,12.33
2017-11-17T08:07:50.444Z,13.30
2017-11-17T08:10:18.722Z,11.73
2017-11-17T08:12:46.849Z,10.70
2017-11-17T08:15:16.652Z,13.73
2017-11-17T08:17:56.503Z,12.67
2017-11-17T08:20:24.706Z,14.37
2017-11-17T08:22:52.855Z,12.60
2017-11-17T08:25:21.002Z,14.53
2017-11-17T08:27:49.896Z,14.53
2017-11-17T08:30:18.800Z,14.60
2017-11-17T08:32:46.938Z,15.20
2017-11-17T08:35:15.098Z,16.40
2017-11-17T08:37:43.238Z,14.93
2017-11-17T08:40:11.414Z,14.40
2017-11-17T08:42:39.558Z,12.63
2017-11-17T08:45:07.686Z,13.90
2017-11-17T08:47:35.833Z,14.53
2017-11-17T08:50:04.007Z,13.43
2017-11-17T08:52:32.185Z,13.53
2017-11-17T08:55:00.831Z,14.40
2017-11-17T08:57:28.995Z,13.87
2017-11-17T08:59:57.414Z,14.17
2017-11-17T09:02:25.565Z,14.37
2017-11-17T09:04:53.677Z,13.30
2017-11-17T09:07:22.270Z,14.17
2017-11-17T09:09:50.388Z,13.80
2017-11-17T09:12:18.552Z,13.03
2017-11-17T09:14:46.703Z,14.70
2017-11-17T09:17:15.901Z,12.23
2017-11-17T09:19:44.051Z,12.73
2017-11-17T09:22:12.210Z,11.63
2017-11-17T09:24:40.486Z,11.63
2017-11-17T09:27:09.221Z,11.30
2017-11-17T09:29:37.598Z,11.27
2017-11-17T09:32:06.706Z,11.90
2017-11-17T09:34:34.960Z,11.50
2017-11-17T09:37:03.310Z,11.87
2017-11-17T09:39:31.918Z,11.33
2017-11-17T09:42:00.222Z,11.50
2017-11-17T09:44:28.345Z,11.63
2017-11-17T09:46:56.518Z,11.97
2017-11-17T09:49:24.654Z,12.77
2017-11-17T09:51:52.831Z,12.60
2017-11-17T09:54:20.970Z,12.27
2017-11-17T09:56:49.883Z,11.87
2017-11-17T09:59:18.028Z,13.43
2017-11-17T10:01:46.975Z,13.07
2017-11-17T10:04:15.147Z,11.20
2017-11-17T10:06:43.285Z,12.10
2017-11-17T10:09:12.202Z,12.30
2017-11-17T10:11:40.410Z,12.53
2017-11-17T10:14:09.006Z,10.87
2017-11-17T10:16:37.149Z,11.33
2017-11-17T10:19:06.292Z,11.43
2017-11-17T10:21:34.865Z,10.83
2017-11-17T10:24:03.051Z,10.73
2017-11-17T10:26:31.208Z,10.03
2017-11-17T10:28:59.333Z,9.97
2017-11-17T10:31:28.257Z,10.33
2017-11-17T10:33:56.402Z,9.67
2017-11-17T10:36:25.290Z,9.20
2017-11-17T10:38:54.188Z,9.47
2017-11-17T10:41:22.315Z,8.63
2017-11-17T10:43:50.865Z,8.67
2017-11-17T10:46:19.165Z,8.30
2017-11-17T10:48:48.133Z,7.47
2017-11-17T10:51:16.251Z,8.03
2017-11-17T10:53:44.396Z,8.63
2017-11-17T10:56:18.190Z,8.60
2017-11-17T10:58:46.346Z,8.33
2017-11-17T11:01:15.223Z,8.07
2017-11-17T11:03:43.377Z,7.10
2017-11-17T11:06:11.506Z,7.47
2017-11-17T11:08:39.645Z,7.70
2017-11-17T11:11:13.367Z,7.33
2017-11-17T11:13:41.524Z,6.63
2017-11-17T11:16:09.638Z,7.10
2017-11-17T11:18:37.766Z,6.13
2017-11-17T11:21:05.877Z,5.77
2017-11-17T11:23:34.016Z,4.87
2017-11-17T11:26:02.133Z,5.10
2017-11-17T11:28:30.270Z,5.33
2017-11-17T11:30:59.172Z,4.80
2017-11-17T11:33:28.058Z,5.30
2017-11-17T11:35:56.966Z,4.93
2017-11-17T11:38:25.096Z,6.50
2017-11-17T11:40:53.252Z,5.17
2017-11-17T11:43:21.374Z,5.03
2017-11-17T11:45:50.322Z,5.20
2017-11-17T11:48:18.434Z,5.33
2017-11-17T11:50:47.396Z,6.00
2017-11-17T11:53:15.510Z,6.10
2017-11-17T11:55:43.650Z,6.03
2017-11-17T11:58:11.762Z,4.63
2017-11-17T12:00:39.934Z,4.70
2017-11-17T12:03:08.041Z,5.13
2017-11-17T12:05:36.187Z,5.63
2017-11-17T12:08:04.319Z,4.50
2017-11-17T12:10:32.452Z,4.90
2017-11-17T12:13:00.565Z,4.67
2017-11-17T12:15:28.719Z,5.00
2017-11-17T12:17:56.849Z,5.40
2017-11-17T12:20:25.000Z,4.83
2017-11-17T12:22:53.900Z,4.90
2017-11-17T12:25:22.095Z,4.43
2017-11-17T12:27:50.213Z,5.00
2017-11-17T12:30:18.378Z,5.30
2017-11-17T12:32:46.497Z,4.60
2017-11-17T12:35:14.628Z,6.00
2017-11-17T12:37:42.772Z,5.10
2017-11-17T12:40:10.911Z,5.80
2017-11-17T12:42:39.898Z,4.80
2017-11-17T12:45:08.071Z,4.70
2017-11-17T12:47:36.951Z,4.67
2017-11-17T12:50:05.123Z,4.80
2017-11-17T12:52:33.242Z,3.43
2017-11-17T12:55:01.386Z,5.17
2017-11-17T12:57:29.488Z,4.33
2017-11-17T12:59:57.638Z,4.77
2017-11-17T13:02:26.500Z,4.17
2017-11-17T13:04:54.628Z,4.87
2017-11-17T13:07:22.738Z,3.97
2017-11-17T13:09:50.891Z,3.53
2017-11-17T13:12:19.011Z,3.63
2017-11-17T13:14:47.921Z,3.33
2017-11-17T13:17:16.818Z,3.80
2017-11-17T13:19:44.950Z,3.17
2017-11-17T13:22:13.069Z,3.03
2017-11-17T13:24:41.337Z,3.03
2017-11-17T13:27:09.473Z,2.70
2017-11-17T13:29:37.618Z,3.30
2017-11-17T13:32:06.568Z,2.93
2017-11-17T13:34:35.467Z,2.40
2017-11-17T13:37:04.349Z,3.00
2017-11-17T13:39:32.502Z,3.23
2017-11-17T13:42:00.625Z,3.10
2017-11-17T13:44:28.755Z,2.90
2017-11-17T13:46:56.878Z,3.00
2017-11-17T13:49:24.983Z,4.10
2017-11-17T13:51:53.120Z,3.10
2017-11-17T13:54:21.217Z,2.83
2017-11-17T13:56:49.346Z,3.20
2017-11-17T13:59:17.487Z,4.00
2017-11-17T14:01:45.623Z,3.83
2017-11-17T14:04:14.809Z,3.27
2017-11-17T14:06:42.933Z,3.80
2017-11-17T14:09:11.049Z,3.33
2017-11-17T14:11:39.173Z,3.20
2017-11-17T14:14:07.457Z,4.00
2017-11-17T14:16:36.374Z,2.77
2017-11-17T14:19:05.251Z,3.43
2017-11-17T14:21:34.171Z,2.83
2017-11-17T14:24:02.270Z,2.80
2017-11-17T14:26:30.402Z,3.00
2017-11-17T14:28:58.513Z,2.93
2017-11-17T14:31:26.646Z,4.00
2017-11-17T14:33:54.765Z,3.10
2017-11-17T14:36:22.899Z,3.20
2017-11-17T14:38:51.003Z,2.60
2017-11-17T14:41:19.137Z,2.60
2017-11-17T14:43:48.014Z,3.30
2017-11-17T14:46:16.910Z,2.90
2017-11-17T14:48:45.791Z,2.63
2017-11-17T14:51:13.916Z,3.47
2017-11-17T14:53:42.018Z,2.83
2017-11-17T14:56:10.147Z,3.00
2017-11-17T14:58:38.271Z,3.20
2017-11-17T15:01:06.387Z,8.23
2017-11-17T15:03:34.521Z,4.00
2017-11-17T15:06:02.647Z,2.93
2017-11-17T15:08:30.815Z,3.10
2017-11-17T15:10:58.921Z,2.53
2017-11-17T15:13:27.045Z,2.50
2017-11-17T15:15:55.159Z,2.77
2017-11-17T15:18:23.302Z,3.13
2017-11-17T15:20:51.409Z,3.30
2017-11-17T15:23:19.608Z,3.10
2017-11-17T15:25:47.708Z,3.47
2017-11-17T15:28:15.881Z,2.63
2017-11-17T15:30:44.757Z,2.80
2017-11-17T15:33:12.921Z,2.90
2017-11-17T15:35:41.105Z,2.90
2017-11-17T15:38:10.005Z,3.13
2017-11-17T15:40:38.878Z,5.30
2017-11-17T15:43:07.009Z,4.03
2017-11-17T15:45:35.139Z,3.17
2017-11-17T15:48:04.061Z,3.90
2017-11-17T15:50:32.167Z,3.33
2017-11-17T15:53:00.289Z,3.40
2017-11-17T15:55:28.413Z,3.60
2017-11-17T15:57:56.550Z,3.03
2017-11-17T16:00:24.693Z,4.75
2017-11-17T16:02:53.601Z,4.40
2017-11-17T16:05:22.628Z,3.87
2017-11-17T16:07:51.104Z,4.00
2017-11-17T16:10:19.234Z,6.63
2017-11-17T16:12:50.813Z,4.50
2017-11-17T16:15:20.312Z,5.63
2017-11-17T16:17:48.454Z,7.20
2017-11-17T16:20:16.581Z,4.47
2017-11-17T16:22:44.690Z,4.33
2017-11-17T16:25:13.281Z,3.37
2017-11-17T16:27:41.406Z,5.50
2017-11-17T16:30:09.546Z,13.27
2017-11-17T16:32:38.431Z,4.30
2017-11-17T16:35:06.557Z,5.37
2017-11-17T16:37:34.701Z,6.27
2017-11-17T16:40:02.990Z,6.40
2017-11-17T16:42:31.109Z,13.30
2017-11-17T16:44:59.289Z,9.67
2017-11-17T16:47:27.408Z,5.97
2017-11-17T16:49:55.541Z,3.90
2017-11-17T16:52:23.698Z,3.73
2017-11-17T16:54:51.849Z,3.77
2017-11-17T16:57:19.991Z,5.33
2017-11-17T16:59:49.258Z,5.20
2017-11-17T17:02:17.464Z,7.17
2017-11-17T17:04:46.381Z,7.70
2017-11-17T17:07:14.490Z,6.90
2017-11-17T17:09:42.629Z,5.90
2017-11-17T17:12:10.763Z,4.70
2017-11-17T17:14:39.701Z,5.53
2017-11-17T17:17:07.833Z,4.70
2017-11-17T17:19:36.202Z,5.00
2017-11-17T17:22:04.346Z,4.90
2017-11-17T17:24:32.459Z,5.20
2017-11-17T17:27:00.604Z,5.70
2017-11-17T17:29:28.720Z,12.10
2017-11-17T17:31:56.871Z,4.90
2017-11-17T17:34:25.018Z,19.13
2017-11-17T17:36:53.168Z,9.50
2017-11-17T17:39:21.423Z,10.70
2017-11-17T17:41:50.330Z,7.73
2017-11-17T17:44:19.230Z,11.50
2017-11-17T17:46:47.383Z,24.70
2017-11-17T17:49:16.280Z,37.97
2017-11-17T17:51:45.196Z,37.80
2017-11-17T17:54:13.355Z,12.73
2017-11-17T17:56:41.522Z,4.40
2017-11-17T17:59:10.385Z,3.90
2017-11-17T18:01:38.557Z,4.40
2017-11-17T18:04:06.701Z,4.07
2017-11-17T18:06:34.842Z,3.80
2017-11-17T18:09:03.743Z,5.33
2017-11-17T18:11:31.906Z,5.27
2017-11-17T18:14:09.605Z,3.83
2017-11-17T18:16:37.806Z,6.47
2017-11-17T18:19:05.913Z,5.03
2017-11-17T18:21:34.095Z,4.70
2017-11-17T18:24:02.250Z,4.93
2017-11-17T18:26:30.359Z,4.90
2017-11-17T18:28:58.493Z,4.93
2017-11-17T18:31:26.623Z,8.40
2017-11-17T18:33:54.786Z,10.60
2017-11-17T18:36:23.752Z,7.63
2017-11-17T18:38:51.889Z,4.90
2017-11-17T18:41:20.056Z,4.60
2017-11-17T18:43:48.228Z,4.57
2017-11-17T18:46:16.302Z,6.17
2017-11-17T18:48:44.450Z,9.23
2017-11-17T18:51:13.778Z,7.60
2017-11-17T18:53:41.910Z,8.60
2017-11-17T18:56:10.052Z,5.47
2017-11-17T18:58:38.201Z,5.73
2017-11-17T19:01:06.341Z,4.37
2017-11-17T19:03:34.585Z,39.63
2017-11-17T19:06:02.753Z,8.10
2017-11-17T19:08:32.151Z,5.40
2017-11-17T19:11:00.331Z,5.70
2017-11-17T19:13:28.513Z,5.40
2017-11-17T19:15:56.678Z,5.70
2017-11-17T19:18:24.765Z,4.23
2017-11-17T19:20:52.868Z,4.73
2017-11-17T19:23:21.775Z,5.93
2017-11-17T19:25:49.891Z,6.20
2017-11-17T19:28:18.030Z,6.60
2017-11-17T19:30:46.171Z,9.43
2017-11-17T19:33:14.305Z,8.60
2017-11-17T19:35:42.428Z,7.40
2017-11-17T19:38:11.304Z,6.13
2017-11-17T19:40:39.431Z,5.50
2017-11-17T19:43:07.529Z,6.77
2017-11-17T19:45:35.661Z,7.73
2017-11-17T19:48:03.772Z,7.77
2017-11-17T19:50:32.714Z,12.57
2017-11-17T19:53:00.829Z,9.00
2017-11-17T19:55:28.961Z,6.40
2017-11-17T19:57:57.082Z,4.93
2017-11-17T20:00:25.226Z,5.40
2017-11-17T20:02:53.349Z,5.13
2017-11-17T20:05:21.547Z,6.30
2017-11-17T20:07:50.464Z,7.10
2017-11-17T20:10:18.593Z,7.30
2017-11-17T20:12:46.706Z,7.60
2017-11-17T20:15:14.857Z,6.77
2017-11-17T20:17:43.743Z,10.40
2017-11-17T20:20:12.653Z,9.70
2017-11-17T20:22:40.763Z,7.80
2017-11-17T20:25:08.908Z,7.90
2017-11-17T20:27:37.023Z,7.03
2017-11-17T20:30:05.158Z,7.37
2017-11-17T20:32:33.350Z,8.00
2017-11-17T20:35:01.526Z,7.23
2017-11-17T20:37:29.649Z,7.67
2017-11-17T20:39:57.806Z,7.20
2017-11-17T20:42:25.934Z,7.70
2017-11-17T20:44:54.081Z,9.37
2017-11-17T20:47:22.955Z,7.63
2017-11-17T20:49:51.096Z,8.90
2017-11-17T20:52:19.227Z,9.27
2017-11-17T20:54:47.359Z,9.07
2017-11-17T20:57:15.755Z,10.10
2017-11-17T20:59:44.663Z,8.50
2017-11-17T21:02:13.616Z,9.40
2017-11-17T21:04:41.742Z,13.67
2017-11-17T21:07:09.879Z,8.70
2017-11-17T21:09:37.980Z,10.40
2017-11-17T21:12:06.123Z,10.07
2017-11-17T21:14:34.236Z,8.67
2017-11-17T21:17:02.377Z,10.10
2017-11-17T21:19:30.504Z,8.57
2017-11-17T21:21:58.638Z,9.33
2017-11-17T21:24:27.519Z,9.60
2017-11-17T21:26:55.657Z,9.03
2017-11-17T21:29:23.808Z,8.33
2017-11-17T21:31:51.947Z,10.77
2017-11-17T21:34:20.836Z,9.07
2017-11-17T21:36:49.602Z,7.87
2017-11-17T21:39:17.772Z,7.90
2017-11-17T21:41:45.913Z,8.13
2017-11-17T21:44:14.022Z,9.50
2017-11-17T21:46:42.182Z,21.50
2017-11-17T21:49:10.297Z,9.90
2017-11-17T21:51:38.484Z,9.40
2017-11-17T21:54:07.367Z,9.33
2017-11-17T21:56:36.255Z,8.63
2017-11-17T21:59:05.134Z,9.07
2017-11-17T22:01:33.266Z,8.00
2017-11-17T22:04:01.378Z,7.87
2017-11-17T22:06:29.509Z,8.00
2017-11-17T22:08:57.618Z,7.90
2017-11-17T22:11:25.740Z,7.80
2017-11-17T22:13:53.865Z,9.13
2017-11-17T22:16:21.998Z,8.37
2017-11-17T22:18:50.158Z,9.00
2017-11-17T22:21:18.307Z,9.00
2017-11-17T22:23:46.453Z,10.03
2017-11-17T22:26:14.578Z,8.60
2017-11-17T22:28:42.714Z,8.80
2017-11-17T22:31:10.823Z,8.60
2017-11-17T22:33:38.963Z,7.90
2017-11-17T22:36:07.073Z,9.30
2017-11-17T22:38:35.687Z,8.70
2017-11-17T22:41:03.824Z,8.87
2017-11-17T22:43:32.726Z,9.77
2017-11-17T22:46:00.847Z,8.70
2017-11-17T22:48:28.996Z,9.10
2017-11-17T22:50:57.121Z,9.07
2017-11-17T22:53:26.016Z,8.97
2017-11-17T22:55:54.892Z,8.53
2017-11-17T22:58:23.036Z,8.67
2017-11-17T23:00:51.151Z,10.53
2017-11-17T23:03:20.047Z,9.97
2017-11-17T23:05:48.940Z,9.50
2017-11-17T23:08:17.968Z,8.60
2017-11-17T23:10:46.084Z,9.70
2017-11-17T23:13:14.996Z,9.33
2017-11-17T23:15:43.912Z,9.27
2017-11-17T23:18:12.078Z,11.20
2017-11-17T23:20:40.219Z,12.57
2017-11-17T23:23:08.381Z,10.50
2017-11-17T23:25:37.310Z,11.63
2017-11-17T23:28:06.205Z,9.30
2017-11-17T23:30:34.313Z,8.83
2017-11-17T23:33:02.454Z,9.80
2017-11-17T23:35:30.584Z,10.10
2017-11-17T23:37:58.762Z,8.80
2017-11-17T23:40:28.507Z,9.00
2017-11-17T23:42:57.399Z,8.40
2017-11-17T23:45:26.294Z,7.70
2017-11-17T23:47:54.416Z,9.00
2017-11-17T23:50:22.551Z,8.93
2017-11-17T23:52:50.685Z,9.13
2017-11-17T23:55:18.828Z,9.60
2017-11-17T23:57:46.925Z,8.67
